Here is the Quick Look data you requested

The Data originates at the National Weather Service, and is made available here by the UAlbany Department of Atmospheric and Environmental Sciences

Surface Observations

KPIT 181351Z 25006KT 10SM BKN026 02/M05 A2988 RMK AO2 SLP138 T00171050=
KPIT 181439Z 26006KT 10SM SCT029 03/M04 A2988 RMK AO2 T00281039=
KPIT 181451Z VRB05KT 10SM SCT030 04/M03 A2988 RMK AO2 SLP133 T00391028 58004=
KPIT 181551Z VRB03KT 10SM SCT032 05/M04 A2986 RMK AO2 SLP129 T00501039=
KPIT 181651Z 17006KT 10SM FEW035 07/M03 A2983 RMK AO2 SLP116 T00721028=
KPIT 181751Z VRB05KT 10SM FEW250 08/M02 A2981 RMK AO2 SLP110 T00831022 10083
 21006 58021=
KPIT 181851Z VRB05KT 10SM FEW070 SCT250 10/M01 A2979 RMK AO2 SLP103 T01001011=
KPIT 181951Z 27005KT 10SM BKN055 BKN250 11/M01 A2977 RMK AO2 SLP094 T01061011=
KPIT 182051Z 02003KT 10SM BKN046 BKN250 12/M01 A2975 RMK AO2 SLP088 T01171011
 56020=
KPIT 182151Z 07003KT 10SM BKN060 BKN085 OVC250 11/M01 A2973 RMK AO2 SLP081
 T01111011=
KPIT 182251Z 18003KT 10SM OVC055 12/M01 A2973 RMK AO2 SLP082 T01171011=
KPIT 182351Z 05003KT 10SM OVC045 11/M01 A2972 RMK AO2 SLP078 T01111006 10122
 20078 56009=
KPIT 190051Z 00000KT 10SM BKN037 OVC046 11/00 A2972 RMK AO2 SLP078 T01110000=
KPIT 190151Z 04006KT 10SM SCT035 OVC046 11/02 A2969 RMK AO2 RAB0059E48 SLP065
 P0000 T01060017=
KPIT 190251Z 04005KT 6SM -RA OVC045 08/05 A2968 RMK AO2 RAB07 SLP064 P0008
 60008 T00830050 58014=
KPIT 190351Z 35005KT 6SM RA BR OVC050 07/05 A2970 RMK AO2 SLP071 P0006
 T00720050=
KPIT 190451Z 34005KT 8SM -RA FEW045 OVC060 07/05 A2972 RMK AO2 SLP075 P0009
 T00670050 401221017=
KPIT 190541Z 34005KT 10SM -RA FEW005 BKN044 OVC090 06/04 A2973 RMK AO2 P0000
 T00560044=
KPIT 190551Z 35005KT 9SM -RA FEW005 BKN044 OVC090 06/04 A2972 RMK AO2 SLP075
 P0000 60023 T00560044 10117 20056 50012=
KPIT 190651Z 32004KT 10SM FEW007 BKN040 OVC085 06/04 A2971 RMK AO2 RAE21 SLP073
 P0001 T00560044=
KPIT 190716Z 30009KT 9SM FEW006 BKN015 OVC045 05/04 A2973 RMK AO2 PRESRR
 T00500044=
KPIT 190751Z 33008KT 8SM BKN005 OVC020 04/04 A2970 RMK AO2 SLP067 T00440039=
KPIT 190851Z 36004KT 8SM OVC006 04/03 A2970 RMK AO2 SLP070 60001 T00390033
 55004 $=
KPIT 190951Z 33012KT 7SM -DZ BKN005 OVC009 03/02 A2971 RMK AO2 DZB36 SLP073
 P0000 T00330022 $=
KPIT 191020Z 32013KT 2SM -RASN BR OVC006 03/02 A2974 RMK AO2 DZE01RAB01SNB05
 P0001 T00280022 $=
KPIT 191051Z 33015KT 2SM -RASN BR BKN005 BKN010 OVC015 02/01 A2977 RMK AO2
 DZE01RAB01SNB05 PRESRR SLP093 P0003 T00220011 $=
KPIT 191151Z 32012KT 2SM -SNRA BR BKN006 OVC011 01/00 A2982 RMK AO2 SLP111
 P0001 60005 70028 T00110000 10056 20011 53037 $=
KPIT 191221Z 31010KT 1 1/2SM R28R/5000VP6000FT -SNRA BR BKN007 BKN021 OVC029
 01/00 A2984 RMK AO2 P0002 T00060000 $=
KPIT 191233Z 31015KT 3/4SM R28R/3500V5000FT -SN BR BKN007 OVC016 01/00 A2984
 RMK AO2 RAE33 P0002 T00060000 $=
KPIT 191251Z 32014KT 1/2SM R28R/4000V4500FT SN VV007 01/00 A2986 RMK AO2 RAE33
 SLP124 P0002 T00060000 $=
KPIT 191315Z 32011KT 1 1/2SM R28R/4500VP6000FT -SN BR SCT007 OVC011 01/00 A2987
 RMK AO2 P0000 T00060000 $=
KPIT 191351Z 32015KT 1 1/2SM -SN BR SCT008 BKN013 OVC019 01/00 A2990 RMK AO2
 SLP137 P0000 T00110000=
KPIT 191430Z 32014KT 2 1/2SM -SN BR FEW009 BKN013 OVC024 02/00 A2993 RMK AO2
 P0000 T00170000=
KPIT 191451Z 31014KT 2 1/2SM R28R/5000VP6000FT -SN BR SCT009 BKN014 OVC025
 02/00 A2995 RMK AO2 SLP156 P0000 60002 T00170000 53042=
KPIT 191502Z 31015G23KT 8SM -SN SCT009 BKN015 OVC025 02/00 A2995 RMK AO2 BINOVC
 P0000 T00170000=
KPIT 191551Z 33015G23KT 10SM BKN025 OVC031 02/M02 A2999 RMK AO2 SNE30 SLP172
 P0000 T00171022=
KPIT 191651Z 32012KT 10SM OVC026 02/M02 A3002 RMK AO2 PK WND 32026/1604 SLP181
 T00221022=
KPIT 191751Z 30015KT 9SM -SN BKN023 OVC032 03/M02 A3005 RMK AO2 PK WND
 31028/1708 SNB00E13B30 SLP190 P0000 60002 T00281017 10028 20006 51033=
KPIT 191851Z 31015G25KT 10SM BKN028 OVC041 04/M02 A3007 RMK AO2 PK WND
 32026/1836 SNE12 SLP196 P0000 T00441017=
KPIT 191927Z 31017G26KT 10SM BKN031 OVC042 04/M02 A3008 RMK AO2 PK WND
 30026/1918 T00441017=
KPIT 191951Z 30018G25KT 10SM BKN031 OVC040 04/M02 A3009 RMK AO2 PK WND
 30026/1918 SLP204 T00441017=
KPIT 192051Z 30020G27KT 10SM BKN038 BKN049 06/M03 A3009 RMK AO2 PK WND
 31027/2050 SLP206 60000 T00561028 51015=
KPIT 192151Z 33016KT 10SM BKN045 07/M03 A3011 RMK AO2 PK WND 30028/2118 SLP212
 T00671033=
KPIT 192251Z 32013G23KT 10SM SCT050 06/M04 A3014 RMK AO2 SLP221 T00611039=
KPIT 192351Z 31012KT 10SM FEW060 06/M04 A3016 RMK AO2 SLP230 60000 T00561044
 10072 20028 53022=
KPIT 200051Z 32013KT 10SM FEW075 04/M04 A3018 RMK AO2 SLP239 T00441039=
KPIT 200151Z 33010KT 10SM FEW075 03/M03 A3021 RMK AO2 SLP249 T00331028=